sensor_id;sensor_type;location;lat;lon;timestamp;P1;durP1;ratioP1;P2;durP2;ratioP2
10201;SDS011;5143;42.584;23.164;2023-02-28T00:00:17;8.97;;;6.37;;
10201;SDS011;5143;42.584;23.164;2023-02-28T00:02:45;8.80;;;5.90;;
10201;SDS011;5143;42.584;23.164;2023-02-28T00:05:13;17.00;;;6.83;;
10201;SDS011;5143;42.584;23.164;2023-02-28T00:07:41;9.83;;;5.87;;
10201;SDS011;5143;42.584;23.164;2023-02-28T00:10:09;8.30;;;5.90;;
10201;SDS011;5143;42.584;23.164;2023-02-28T00:12:38;9.00;;;6.57;;
10201;SDS011;5143;42.584;23.164;2023-02-28T00:15:08;10.70;;;7.27;;
10201;SDS011;5143;42.584;23.164;2023-02-28T00:17:36;8.37;;;6.50;;
10201;SDS011;5143;42.584;23.164;2023-02-28T00:20:04;11.03;;;6.37;;
10201;SDS011;5143;42.584;23.164;2023-02-28T00:22:33;12.10;;;7.70;;
10201;SDS011;5143;42.584;23.164;2023-02-28T00:25:00;11.30;;;6.33;;
10201;SDS011;5143;42.584;23.164;2023-02-28T00:27:27;10.13;;;6.13;;
10201;SDS011;5143;42.584;23.164;2023-02-28T00:29:54;9.37;;;6.17;;
10201;SDS011;5143;42.584;23.164;2023-02-28T00:32:22;10.90;;;6.60;;
10201;SDS011;5143;42.584;23.164;2023-02-28T00:34:48;8.20;;;5.87;;
10201;SDS011;5143;42.584;23.164;2023-02-28T00:37:15;7.23;;;5.83;;
10201;SDS011;5143;42.584;23.164;2023-02-28T00:39:42;7.07;;;5.10;;
10201;SDS011;5143;42.584;23.164;2023-02-28T00:42:09;11.50;;;5.80;;
10201;SDS011;5143;42.584;23.164;2023-02-28T00:44:36;8.67;;;5.67;;
10201;SDS011;5143;42.584;23.164;2023-02-28T00:47:02;13.80;;;6.23;;
10201;SDS011;5143;42.584;23.164;2023-02-28T00:49:31;9.03;;;6.27;;
10201;SDS011;5143;42.584;23.164;2023-02-28T00:51:58;12.90;;;5.93;;
10201;SDS011;5143;42.584;23.164;2023-02-28T00:54:24;7.73;;;4.87;;
10201;SDS011;5143;42.584;23.164;2023-02-28T00:56:51;7.87;;;5.80;;
10201;SDS011;5143;42.584;23.164;2023-02-28T00:59:18;11.67;;;7.67;;
10201;SDS011;5143;42.584;23.164;2023-02-28T01:01:45;11.97;;;8.17;;
10201;SDS011;5143;42.584;23.164;2023-02-28T01:04:12;16.67;;;9.50;;
10201;SDS011;5143;42.584;23.164;2023-02-28T01:06:41;15.50;;;10.30;;
10201;SDS011;5143;42.584;23.164;2023-02-28T01:09:08;17.17;;;9.37;;
10201;SDS011;5143;42.584;23.164;2023-02-28T01:11:35;17.33;;;10.87;;
10201;SDS011;5143;42.584;23.164;2023-02-28T01:14:02;13.90;;;8.10;;
10201;SDS011;5143;42.584;23.164;2023-02-28T01:16:30;12.20;;;7.63;;
10201;SDS011;5143;42.584;23.164;2023-02-28T01:18:57;15.00;;;7.60;;
10201;SDS011;5143;42.584;23.164;2023-02-28T01:21:24;12.43;;;7.57;;
10201;SDS011;5143;42.584;23.164;2023-02-28T01:23:52;12.47;;;7.60;;
10201;SDS011;5143;42.584;23.164;2023-02-28T01:26:23;16.13;;;9.23;;
10201;SDS011;5143;42.584;23.164;2023-02-28T01:28:50;20.57;;;11.80;;
10201;SDS011;5143;42.584;23.164;2023-02-28T01:31:19;30.70;;;12.30;;
10201;SDS011;5143;42.584;23.164;2023-02-28T01:33:47;42.83;;;12.90;;
10201;SDS011;5143;42.584;23.164;2023-02-28T01:36:14;33.43;;;12.73;;
10201;SDS011;5143;42.584;23.164;2023-02-28T01:38:42;21.83;;;10.57;;
10201;SDS011;5143;42.584;23.164;2023-02-28T01:41:12;24.67;;;10.80;;
10201;SDS011;5143;42.584;23.164;2023-02-28T01:43:52;17.73;;;10.03;;
10201;SDS011;5143;42.584;23.164;2023-02-28T01:46:30;46.67;;;12.77;;
10201;SDS011;5143;42.584;23.164;2023-02-28T01:48:59;33.40;;;12.60;;
10201;SDS011;5143;42.584;23.164;2023-02-28T01:51:33;32.43;;;12.27;;
10201;SDS011;5143;42.584;23.164;2023-02-28T01:54:05;27.07;;;12.80;;
10201;SDS011;5143;42.584;23.164;2023-02-28T01:56:41;28.07;;;13.43;;
10201;SDS011;5143;42.584;23.164;2023-02-28T01:59:13;30.00;;;13.47;;
10201;SDS011;5143;42.584;23.164;2023-02-28T02:01:45;26.13;;;13.20;;
10201;SDS011;5143;42.584;23.164;2023-02-28T02:04:12;20.60;;;11.50;;
10201;SDS011;5143;42.584;23.164;2023-02-28T02:06:40;20.10;;;11.53;;
10201;SDS011;5143;42.584;23.164;2023-02-28T02:09:11;23.27;;;12.93;;
10201;SDS011;5143;42.584;23.164;2023-02-28T02:11:40;18.57;;;10.93;;
10201;SDS011;5143;42.584;23.164;2023-02-28T02:14:12;26.00;;;12.70;;
10201;SDS011;5143;42.584;23.164;2023-02-28T02:17:04;25.40;;;12.23;;
10201;SDS011;5143;42.584;23.164;2023-02-28T02:23:01;112.57;;;18.57;;
10201;SDS011;5143;42.584;23.164;2023-02-28T02:25:41;112.67;;;18.57;;
10201;SDS011;5143;42.584;23.164;2023-02-28T02:28:17;437.00;;;31.57;;
10201;SDS011;5143;42.584;23.164;2023-02-28T02:31:12;271.07;;;25.37;;
10201;SDS011;5143;42.584;23.164;2023-02-28T02:37:15;245.13;;;25.53;;
10201;SDS011;5143;42.584;23.164;2023-02-28T02:39:55;192.57;;;16.27;;
10201;SDS011;5143;42.584;23.164;2023-02-28T02:42:29;371.00;;;19.43;;
10201;SDS011;5143;42.584;23.164;2023-02-28T02:45:04;266.90;;;17.63;;
10201;SDS011;5143;42.584;23.164;2023-02-28T02:47:35;418.20;;;18.60;;
10201;SDS011;5143;42.584;23.164;2023-02-28T02:50:07;451.27;;;20.63;;
10201;SDS011;5143;42.584;23.164;2023-02-28T02:52:40;416.10;;;23.67;;
10201;SDS011;5143;42.584;23.164;2023-02-28T02:55:11;334.70;;;19.33;;
10201;SDS011;5143;42.584;23.164;2023-02-28T02:57:43;340.33;;;18.50;;
10201;SDS011;5143;42.584;23.164;2023-02-28T03:00:14;250.93;;;14.57;;
10201;SDS011;5143;42.584;23.164;2023-02-28T03:02:44;248.37;;;13.80;;
10201;SDS011;5143;42.584;23.164;2023-02-28T03:05:17;224.63;;;14.23;;
10201;SDS011;5143;42.584;23.164;2023-02-28T03:07:46;211.13;;;13.10;;
10201;SDS011;5143;42.584;23.164;2023-02-28T03:10:26;305.77;;;14.87;;
10201;SDS011;5143;42.584;23.164;2023-02-28T03:13:02;202.93;;;13.87;;
10201;SDS011;5143;42.584;23.164;2023-02-28T03:15:40;155.23;;;11.60;;
10201;SDS011;5143;42.584;23.164;2023-02-28T03:18:21;114.10;;;11.80;;
10201;SDS011;5143;42.584;23.164;2023-02-28T03:20:59;221.70;;;14.17;;
10201;SDS011;5143;42.584;23.164;2023-02-28T03:23:35;171.60;;;10.57;;
10201;SDS011;5143;42.584;23.164;2023-02-28T03:26:11;29.80;;;8.30;;
10201;SDS011;5143;42.584;23.164;2023-02-28T03:28:45;89.43;;;9.50;;
10201;SDS011;5143;42.584;23.164;2023-02-28T03:31:20;96.77;;;9.00;;
10201;SDS011;5143;42.584;23.164;2023-02-28T03:33:56;91.43;;;9.67;;
10201;SDS011;5143;42.584;23.164;2023-02-28T03:36:29;207.70;;;10.50;;
10201;SDS011;5143;42.584;23.164;2023-02-28T03:39:02;111.77;;;9.07;;
10201;SDS011;5143;42.584;23.164;2023-02-28T03:41:32;108.27;;;8.50;;
10201;SDS011;5143;42.584;23.164;2023-02-28T03:44:06;28.33;;;6.73;;
10201;SDS011;5143;42.584;23.164;2023-02-28T03:46:40;104.90;;;6.97;;
10201;SDS011;5143;42.584;23.164;2023-02-28T03:49:13;165.00;;;11.17;;
10201;SDS011;5143;42.584;23.164;2023-02-28T03:51:46;84.90;;;10.03;;
10201;SDS011;5143;42.584;23.164;2023-02-28T03:54:15;186.67;;;11.87;;
10201;SDS011;5143;42.584;23.164;2023-02-28T03:56:46;181.93;;;14.07;;
10201;SDS011;5143;42.584;23.164;2023-02-28T03:59:18;213.47;;;14.07;;
10201;SDS011;5143;42.584;23.164;2023-02-28T04:01:48;228.47;;;12.77;;
10201;SDS011;5143;42.584;23.164;2023-02-28T04:04:17;146.93;;;13.03;;
10201;SDS011;5143;42.584;23.164;2023-02-28T04:06:44;257.30;;;13.67;;
10201;SDS011;5143;42.584;23.164;2023-02-28T04:09:13;137.03;;;13.47;;
10201;SDS011;5143;42.584;23.164;2023-02-28T04:11:41;418.87;;;17.27;;
10201;SDS011;5143;42.584;23.164;2023-02-28T04:14:10;142.67;;;12.33;;
10201;SDS011;5143;42.584;23.164;2023-02-28T04:16:38;195.67;;;13.67;;
10201;SDS011;5143;42.584;23.164;2023-02-28T04:19:07;175.80;;;12.93;;
10201;SDS011;5143;42.584;23.164;2023-02-28T04:21:36;188.33;;;12.80;;
10201;SDS011;5143;42.584;23.164;2023-02-28T04:24:05;236.20;;;14.77;;
10201;SDS011;5143;42.584;23.164;2023-02-28T04:26:34;70.37;;;9.63;;
10201;SDS011;5143;42.584;23.164;2023-02-28T04:29:03;91.83;;;10.97;;
10201;SDS011;5143;42.584;23.164;2023-02-28T04:31:30;147.07;;;11.80;;
10201;SDS011;5143;42.584;23.164;2023-02-28T04:33:57;122.87;;;13.60;;
10201;SDS011;5143;42.584;23.164;2023-02-28T04:36:24;109.13;;;10.40;;
10201;SDS011;5143;42.584;23.164;2023-02-28T04:38:51;117.27;;;12.00;;
10201;SDS011;5143;42.584;23.164;2023-02-28T04:41:18;38.30;;;9.23;;
10201;SDS011;5143;42.584;23.164;2023-02-28T04:43:46;77.47;;;10.20;;
10201;SDS011;5143;42.584;23.164;2023-02-28T04:46:13;158.40;;;11.83;;
10201;SDS011;5143;42.584;23.164;2023-02-28T04:48:40;184.33;;;12.30;;
10201;SDS011;5143;42.584;23.164;2023-02-28T04:51:09;181.60;;;14.40;;
10201;SDS011;5143;42.584;23.164;2023-02-28T04:53:39;117.67;;;9.30;;
10201;SDS011;5143;42.584;23.164;2023-02-28T04:56:07;101.27;;;10.53;;
10201;SDS011;5143;42.584;23.164;2023-02-28T04:58:36;138.43;;;10.20;;
10201;SDS011;5143;42.584;23.164;2023-02-28T05:01:05;192.50;;;11.13;;
10201;SDS011;5143;42.584;23.164;2023-02-28T05:03:37;56.70;;;9.40;;
10201;SDS011;5143;42.584;23.164;2023-02-28T05:06:05;114.93;;;7.67;;
10201;SDS011;5143;42.584;23.164;2023-02-28T05:08:32;189.57;;;9.90;;
10201;SDS011;5143;42.584;23.164;2023-02-28T05:10:59;253.07;;;10.33;;
10201;SDS011;5143;42.584;23.164;2023-02-28T05:13:26;243.40;;;11.07;;
10201;SDS011;5143;42.584;23.164;2023-02-28T05:15:53;371.00;;;17.00;;
10201;SDS011;5143;42.584;23.164;2023-02-28T05:18:22;101.83;;;8.70;;
10201;SDS011;5143;42.584;23.164;2023-02-28T05:20:48;315.70;;;13.20;;
10201;SDS011;5143;42.584;23.164;2023-02-28T05:23:15;106.50;;;9.43;;
10201;SDS011;5143;42.584;23.164;2023-02-28T05:25:43;115.00;;;10.27;;
10201;SDS011;5143;42.584;23.164;2023-02-28T05:28:10;116.23;;;8.60;;
10201;SDS011;5143;42.584;23.164;2023-02-28T05:30:37;231.17;;;12.07;;
10201;SDS011;5143;42.584;23.164;2023-02-28T05:33:03;222.03;;;12.40;;
10201;SDS011;5143;42.584;23.164;2023-02-28T05:35:31;79.37;;;8.77;;
10201;SDS011;5143;42.584;23.164;2023-02-28T05:37:58;118.37;;;10.67;;
10201;SDS011;5143;42.584;23.164;2023-02-28T05:40:25;149.47;;;9.90;;
10201;SDS011;5143;42.584;23.164;2023-02-28T05:42:51;56.73;;;8.70;;
10201;SDS011;5143;42.584;23.164;2023-02-28T05:45:18;69.90;;;7.63;;
10201;SDS011;5143;42.584;23.164;2023-02-28T05:47:45;29.97;;;6.83;;
10201;SDS011;5143;42.584;23.164;2023-02-28T05:50:12;75.63;;;7.87;;
10201;SDS011;5143;42.584;23.164;2023-02-28T05:52:40;68.37;;;8.37;;
10201;SDS011;5143;42.584;23.164;2023-02-28T05:55:07;94.47;;;8.07;;
10201;SDS011;5143;42.584;23.164;2023-02-28T05:57:34;74.33;;;9.70;;
10201;SDS011;5143;42.584;23.164;2023-02-28T06:00:02;124.43;;;12.97;;
10201;SDS011;5143;42.584;23.164;2023-02-28T06:02:30;58.77;;;9.43;;
10201;SDS011;5143;42.584;23.164;2023-02-28T06:04:56;49.67;;;9.77;;
10201;SDS011;5143;42.584;23.164;2023-02-28T06:07:23;43.77;;;9.17;;
10201;SDS011;5143;42.584;23.164;2023-02-28T06:09:51;81.27;;;11.43;;
10201;SDS011;5143;42.584;23.164;2023-02-28T06:12:18;66.63;;;12.07;;
10201;SDS011;5143;42.584;23.164;2023-02-28T06:14:44;112.60;;;13.40;;
10201;SDS011;5143;42.584;23.164;2023-02-28T06:17:11;155.50;;;14.40;;
10201;SDS011;5143;42.584;23.164;2023-02-28T06:19:38;109.57;;;13.80;;
10201;SDS011;5143;42.584;23.164;2023-02-28T06:22:06;58.90;;;13.63;;
10201;SDS011;5143;42.584;23.164;2023-02-28T06:24:33;52.17;;;11.53;;
10201;SDS011;5143;42.584;23.164;2023-02-28T06:27:01;94.80;;;14.17;;
10201;SDS011;5143;42.584;23.164;2023-02-28T06:29:30;124.60;;;13.57;;
10201;SDS011;5143;42.584;23.164;2023-02-28T06:31:57;158.30;;;15.47;;
10201;SDS011;5143;42.584;23.164;2023-02-28T06:34:24;77.37;;;12.27;;
10201;SDS011;5143;42.584;23.164;2023-02-28T06:36:50;40.47;;;10.37;;
10201;SDS011;5143;42.584;23.164;2023-02-28T06:39:17;135.30;;;12.80;;
10201;SDS011;5143;42.584;23.164;2023-02-28T06:41:44;68.43;;;10.93;;
10201;SDS011;5143;42.584;23.164;2023-02-28T06:44:15;83.30;;;11.43;;
10201;SDS011;5143;42.584;23.164;2023-02-28T06:46:43;73.33;;;12.70;;
10201;SDS011;5143;42.584;23.164;2023-02-28T06:49:11;96.27;;;12.70;;
10201;SDS011;5143;42.584;23.164;2023-02-28T06:51:38;126.50;;;13.50;;
10201;SDS011;5143;42.584;23.164;2023-02-28T06:54:07;56.33;;;11.30;;
10201;SDS011;5143;42.584;23.164;2023-02-28T06:56:34;28.77;;;10.17;;
10201;SDS011;5143;42.584;23.164;2023-02-28T06:59:01;70.40;;;10.23;;
10201;SDS011;5143;42.584;23.164;2023-02-28T07:01:30;39.60;;;9.83;;
10201;SDS011;5143;42.584;23.164;2023-02-28T07:03:57;63.90;;;11.90;;
10201;SDS011;5143;42.584;23.164;2023-02-28T07:06:25;25.90;;;9.70;;
10201;SDS011;5143;42.584;23.164;2023-02-28T07:08:53;48.47;;;9.83;;
10201;SDS011;5143;42.584;23.164;2023-02-28T07:11:20;38.03;;;8.77;;
10201;SDS011;5143;42.584;23.164;2023-02-28T07:13:50;36.73;;;9.60;;
10201;SDS011;5143;42.584;23.164;2023-02-28T07:16:17;18.47;;;9.40;;
10201;SDS011;5143;42.584;23.164;2023-02-28T07:18:46;36.47;;;8.97;;
10201;SDS011;5143;42.584;23.164;2023-02-28T07:21:12;31.53;;;9.50;;
10201;SDS011;5143;42.584;23.164;2023-02-28T07:23:39;54.33;;;10.87;;
10201;SDS011;5143;42.584;23.164;2023-02-28T07:26:07;42.67;;;10.10;;
10201;SDS011;5143;42.584;23.164;2023-02-28T07:28:38;23.50;;;10.23;;
10201;SDS011;5143;42.584;23.164;2023-02-28T07:31:04;42.43;;;11.97;;
10201;SDS011;5143;42.584;23.164;2023-02-28T07:33:32;34.60;;;10.43;;
10201;SDS011;5143;42.584;23.164;2023-02-28T07:36:02;59.23;;;11.53;;
10201;SDS011;5143;42.584;23.164;2023-02-28T07:38:30;69.47;;;11.90;;
10201;SDS011;5143;42.584;23.164;2023-02-28T07:40:57;21.33;;;11.50;;
10201;SDS011;5143;42.584;23.164;2023-02-28T07:43:23;81.17;;;13.33;;
10201;SDS011;5143;42.584;23.164;2023-02-28T07:45:50;36.30;;;12.83;;
10201;SDS011;5143;42.584;23.164;2023-02-28T07:48:17;38.87;;;13.47;;
10201;SDS011;5143;42.584;23.164;2023-02-28T07:50:44;45.87;;;13.10;;
10201;SDS011;5143;42.584;23.164;2023-02-28T07:53:14;89.10;;;13.63;;
10201;SDS011;5143;42.584;23.164;2023-02-28T07:55:41;41.03;;;13.23;;
10201;SDS011;5143;42.584;23.164;2023-02-28T07:58:08;112.97;;;14.20;;
10201;SDS011;5143;42.584;23.164;2023-02-28T08:00:34;82.53;;;15.00;;
10201;SDS011;5143;42.584;23.164;2023-02-28T08:03:01;54.17;;;15.37;;
10201;SDS011;5143;42.584;23.164;2023-02-28T08:05:28;26.40;;;13.97;;
10201;SDS011;5143;42.584;23.164;2023-02-28T08:07:56;78.77;;;14.47;;
10201;SDS011;5143;42.584;23.164;2023-02-28T08:10:24;32.07;;;15.13;;
10201;SDS011;5143;42.584;23.164;2023-02-28T08:12:51;64.60;;;15.50;;
10201;SDS011;5143;42.584;23.164;2023-02-28T08:15:17;66.23;;;15.60;;
10201;SDS011;5143;42.584;23.164;2023-02-28T08:17:44;32.63;;;15.20;;
10201;SDS011;5143;42.584;23.164;2023-02-28T08:20:11;27.53;;;13.80;;
10201;SDS011;5143;42.584;23.164;2023-02-28T08:22:38;23.27;;;13.60;;
10201;SDS011;5143;42.584;23.164;2023-02-28T08:25:05;24.60;;;13.70;;
10201;SDS011;5143;42.584;23.164;2023-02-28T08:27:34;24.03;;;12.67;;
10201;SDS011;5143;42.584;23.164;2023-02-28T08:30:02;22.33;;;11.77;;
10201;SDS011;5143;42.584;23.164;2023-02-28T08:32:30;18.70;;;12.60;;
10201;SDS011;5143;42.584;23.164;2023-02-28T08:34:58;24.90;;;13.17;;
10201;SDS011;5143;42.584;23.164;2023-02-28T08:37:26;22.83;;;13.30;;
10201;SDS011;5143;42.584;23.164;2023-02-28T08:39:53;23.40;;;13.60;;
10201;SDS011;5143;42.584;23.164;2023-02-28T08:42:20;21.53;;;11.90;;
10201;SDS011;5143;42.584;23.164;2023-02-28T08:44:48;20.70;;;12.33;;
10201;SDS011;5143;42.584;23.164;2023-02-28T08:47:15;23.50;;;12.40;;
10201;SDS011;5143;42.584;23.164;2023-02-28T08:49:41;28.10;;;13.37;;
10201;SDS011;5143;42.584;23.164;2023-02-28T08:52:08;24.77;;;14.27;;
10201;SDS011;5143;42.584;23.164;2023-02-28T08:54:35;26.77;;;14.57;;
10201;SDS011;5143;42.584;23.164;2023-02-28T08:57:02;23.27;;;13.80;;
10201;SDS011;5143;42.584;23.164;2023-02-28T08:59:29;23.73;;;13.37;;
10201;SDS011;5143;42.584;23.164;2023-02-28T09:01:57;26.07;;;12.63;;
10201;SDS011;5143;42.584;23.164;2023-02-28T09:04:24;25.63;;;13.37;;
10201;SDS011;5143;42.584;23.164;2023-02-28T09:06:51;32.87;;;13.57;;
10201;SDS011;5143;42.584;23.164;2023-02-28T09:09:18;30.07;;;13.40;;
10201;SDS011;5143;42.584;23.164;2023-02-28T09:11:45;26.27;;;13.57;;
10201;SDS011;5143;42.584;23.164;2023-02-28T09:14:11;26.57;;;13.10;;
10201;SDS011;5143;42.584;23.164;2023-02-28T09:16:38;25.67;;;13.20;;
10201;SDS011;5143;42.584;23.164;2023-02-28T09:19:06;30.27;;;13.90;;
10201;SDS011;5143;42.584;23.164;2023-02-28T09:21:37;25.87;;;12.93;;
10201;SDS011;5143;42.584;23.164;2023-02-28T09:24:04;31.93;;;12.67;;
10201;SDS011;5143;42.584;23.164;2023-02-28T09:26:31;31.13;;;13.93;;
10201;SDS011;5143;42.584;23.164;2023-02-28T09:28:59;34.83;;;15.33;;
10201;SDS011;5143;42.584;23.164;2023-02-28T09:31:27;25.87;;;14.33;;
10201;SDS011;5143;42.584;23.164;2023-02-28T09:33:55;31.10;;;15.13;;
10201;SDS011;5143;42.584;23.164;2023-02-28T09:36:25;28.40;;;14.80;;
10201;SDS011;5143;42.584;23.164;2023-02-28T09:38:53;26.80;;;14.23;;
10201;SDS011;5143;42.584;23.164;2023-02-28T09:41:20;24.20;;;14.10;;
10201;SDS011;5143;42.584;23.164;2023-02-28T09:43:50;20.00;;;13.60;;
10201;SDS011;5143;42.584;23.164;2023-02-28T09:46:31;27.90;;;14.80;;
10201;SDS011;5143;42.584;23.164;2023-02-28T09:49:00;29.10;;;14.57;;
10201;SDS011;5143;42.584;23.164;2023-02-28T09:51:34;29.23;;;14.67;;
10201;SDS011;5143;42.584;23.164;2023-02-28T09:54:11;17.73;;;13.37;;
10201;SDS011;5143;42.584;23.164;2023-02-28T09:56:44;21.43;;;12.50;;
10201;SDS011;5143;42.584;23.164;2023-02-28T09:59:18;28.47;;;14.40;;
10201;SDS011;5143;42.584;23.164;2023-02-28T10:01:57;22.47;;;14.47;;
10201;SDS011;5143;42.584;23.164;2023-02-28T10:04:36;25.03;;;14.97;;
10201;SDS011;5143;42.584;23.164;2023-02-28T10:07:17;26.83;;;15.60;;
10201;SDS011;5143;42.584;23.164;2023-02-28T10:09:53;28.07;;;15.20;;
10201;SDS011;5143;42.584;23.164;2023-02-28T10:12:26;28.60;;;16.47;;
10201;SDS011;5143;42.584;23.164;2023-02-28T10:14:55;24.80;;;15.57;;
10201;SDS011;5143;42.584;23.164;2023-02-28T10:17:28;26.43;;;16.67;;
10201;SDS011;5143;42.584;23.164;2023-02-28T10:20:05;30.97;;;18.57;;
10201;SDS011;5143;42.584;23.164;2023-02-28T10:22:41;32.87;;;19.30;;
10201;SDS011;5143;42.584;23.164;2023-02-28T10:25:18;32.07;;;18.83;;
10201;SDS011;5143;42.584;23.164;2023-02-28T10:27:46;29.47;;;18.07;;
10201;SDS011;5143;42.584;23.164;2023-02-28T10:30:13;38.13;;;19.47;;
10201;SDS011;5143;42.584;23.164;2023-02-28T10:32:40;37.40;;;20.90;;
10201;SDS011;5143;42.584;23.164;2023-02-28T10:35:16;35.23;;;19.07;;
10201;SDS011;5143;42.584;23.164;2023-02-28T10:37:47;34.37;;;19.10;;
10201;SDS011;5143;42.584;23.164;2023-02-28T10:40:27;35.50;;;19.67;;
10201;SDS011;5143;42.584;23.164;2023-02-28T10:42:56;29.60;;;19.43;;
10201;SDS011;5143;42.584;23.164;2023-02-28T10:45:24;30.83;;;18.97;;
10201;SDS011;5143;42.584;23.164;2023-02-28T10:47:53;31.80;;;20.27;;
10201;SDS011;5143;42.584;23.164;2023-02-28T10:50:39;34.83;;;20.37;;
10201;SDS011;5143;42.584;23.164;2023-02-28T10:53:27;38.37;;;21.03;;
10201;SDS011;5143;42.584;23.164;2023-02-28T10:55:58;34.43;;;21.17;;
10201;SDS011;5143;42.584;23.164;2023-02-28T10:58:27;40.30;;;21.67;;
10201;SDS011;5143;42.584;23.164;2023-02-28T11:00:56;35.47;;;20.53;;
10201;SDS011;5143;42.584;23.164;2023-02-28T11:03:25;38.97;;;21.23;;
10201;SDS011;5143;42.584;23.164;2023-02-28T11:05:56;37.23;;;20.27;;
10201;SDS011;5143;42.584;23.164;2023-02-28T11:08:25;37.93;;;20.90;;
10201;SDS011;5143;42.584;23.164;2023-02-28T11:10:55;32.37;;;19.93;;
10201;SDS011;5143;42.584;23.164;2023-02-28T11:13:25;35.50;;;21.53;;
10201;SDS011;5143;42.584;23.164;2023-02-28T11:15:58;38.70;;;21.43;;
10201;SDS011;5143;42.584;23.164;2023-02-28T11:18:27;42.50;;;22.13;;
10201;SDS011;5143;42.584;23.164;2023-02-28T11:20:57;39.10;;;21.60;;
10201;SDS011;5143;42.584;23.164;2023-02-28T11:23:28;39.00;;;22.60;;
10201;SDS011;5143;42.584;23.164;2023-02-28T11:26:00;45.37;;;22.60;;
10201;SDS011;5143;42.584;23.164;2023-02-28T11:28:30;39.00;;;22.47;;
10201;SDS011;5143;42.584;23.164;2023-02-28T11:31:03;34.93;;;22.53;;
10201;SDS011;5143;42.584;23.164;2023-02-28T11:33:37;44.50;;;24.07;;
10201;SDS011;5143;42.584;23.164;2023-02-28T11:36:09;43.60;;;21.53;;
10201;SDS011;5143;42.584;23.164;2023-02-28T11:38:40;40.13;;;22.60;;
10201;SDS011;5143;42.584;23.164;2023-02-28T11:41:15;28.90;;;21.07;;
10201;SDS011;5143;42.584;23.164;2023-02-28T11:43:59;35.27;;;21.70;;
10201;SDS011;5143;42.584;23.164;2023-02-28T11:46:37;41.20;;;22.70;;
10201;SDS011;5143;42.584;23.164;2023-02-28T11:49:13;37.73;;;21.70;;
10201;SDS011;5143;42.584;23.164;2023-02-28T11:51:50;43.40;;;22.80;;
10201;SDS011;5143;42.584;23.164;2023-02-28T11:54:26;33.20;;;20.30;;
10201;SDS011;5143;42.584;23.164;2023-02-28T11:56:58;39.70;;;22.67;;
10201;SDS011;5143;42.584;23.164;2023-02-28T11:59:41;39.13;;;20.47;;
10201;SDS011;5143;42.584;23.164;2023-02-28T12:02:23;41.40;;;21.67;;
10201;SDS011;5143;42.584;23.164;2023-02-28T12:04:57;41.50;;;22.40;;
10201;SDS011;5143;42.584;23.164;2023-02-28T12:07:45;37.40;;;21.37;;
10201;SDS011;5143;42.584;23.164;2023-02-28T12:10:21;36.20;;;21.13;;
10201;SDS011;5143;42.584;23.164;2023-02-28T12:12:54;31.10;;;19.97;;
10201;SDS011;5143;42.584;23.164;2023-02-28T12:18:43;41.73;;;16.37;;
10201;SDS011;5143;42.584;23.164;2023-02-28T12:21:24;31.87;;;16.17;;
10201;SDS011;5143;42.584;23.164;2023-02-28T12:24:03;29.20;;;14.57;;
10201;SDS011;5143;42.584;23.164;2023-02-28T12:26:46;26.90;;;12.57;;
10201;SDS011;5143;42.584;23.164;2023-02-28T12:29:16;29.97;;;14.07;;
10201;SDS011;5143;42.584;23.164;2023-02-28T12:31:47;29.70;;;15.47;;
10201;SDS011;5143;42.584;23.164;2023-02-28T12:34:19;30.30;;;9.47;;
10201;SDS011;5143;42.584;23.164;2023-02-28T12:36:49;16.33;;;9.13;;
10201;SDS011;5143;42.584;23.164;2023-02-28T12:39:20;23.70;;;12.17;;
10201;SDS011;5143;42.584;23.164;2023-02-28T12:41:54;18.97;;;9.37;;
10201;SDS011;5143;42.584;23.164;2023-02-28T12:44:27;20.13;;;9.47;;
10201;SDS011;5143;42.584;23.164;2023-02-28T12:46:59;21.00;;;9.40;;
10201;SDS011;5143;42.584;23.164;2023-02-28T12:49:31;22.13;;;8.73;;
10201;SDS011;5143;42.584;23.164;2023-02-28T12:52:00;16.03;;;8.77;;
10201;SDS011;5143;42.584;23.164;2023-02-28T12:54:31;24.90;;;9.67;;
10201;SDS011;5143;42.584;23.164;2023-02-28T12:57:08;18.07;;;8.80;;
10201;SDS011;5143;42.584;23.164;2023-02-28T12:59:40;26.63;;;10.53;;
10201;SDS011;5143;42.584;23.164;2023-02-28T13:05:45;16.10;;;8.70;;
10201;SDS011;5143;42.584;23.164;2023-02-28T13:08:48;16.03;;;8.57;;
10201;SDS011;5143;42.584;23.164;2023-02-28T13:11:31;16.53;;;9.33;;
10201;SDS011;5143;42.584;23.164;2023-02-28T13:14:02;20.17;;;9.77;;
10201;SDS011;5143;42.584;23.164;2023-02-28T13:19:28;16.97;;;8.37;;
10201;SDS011;5143;42.584;23.164;2023-02-28T13:21:57;27.17;;;9.67;;
10201;SDS011;5143;42.584;23.164;2023-02-28T13:24:39;21.80;;;9.57;;
10201;SDS011;5143;42.584;23.164;2023-02-28T13:33:25;19.93;;;9.97;;
10201;SDS011;5143;42.584;23.164;2023-02-28T13:36:06;22.80;;;9.67;;
10201;SDS011;5143;42.584;23.164;2023-02-28T13:38:49;19.13;;;10.50;;
10201;SDS011;5143;42.584;23.164;2023-02-28T13:44:14;18.13;;;9.93;;
10201;SDS011;5143;42.584;23.164;2023-02-28T13:49:47;31.40;;;10.87;;
10201;SDS011;5143;42.584;23.164;2023-02-28T13:52:17;20.23;;;9.13;;
10201;SDS011;5143;42.584;23.164;2023-02-28T13:55:09;21.47;;;9.60;;
10201;SDS011;5143;42.584;23.164;2023-02-28T13:57:57;21.53;;;10.10;;
10201;SDS011;5143;42.584;23.164;2023-02-28T14:00:35;21.53;;;10.30;;
10201;SDS011;5143;42.584;23.164;2023-02-28T14:03:16;18.93;;;9.83;;
10201;SDS011;5143;42.584;23.164;2023-02-28T14:08:44;24.93;;;10.50;;
10201;SDS011;5143;42.584;23.164;2023-02-28T14:11:24;16.43;;;10.30;;
10201;SDS011;5143;42.584;23.164;2023-02-28T14:13:56;17.20;;;10.33;;
10201;SDS011;5143;42.584;23.164;2023-02-28T14:16:24;20.50;;;10.53;;
10201;SDS011;5143;42.584;23.164;2023-02-28T14:18:55;19.40;;;10.53;;
10201;SDS011;5143;42.584;23.164;2023-02-28T14:21:27;23.03;;;9.57;;
10201;SDS011;5143;42.584;23.164;2023-02-28T14:27:03;21.07;;;9.30;;
10201;SDS011;5143;42.584;23.164;2023-02-28T14:29:56;21.63;;;9.67;;
10201;SDS011;5143;42.584;23.164;2023-02-28T14:32:32;20.33;;;9.97;;
10201;SDS011;5143;42.584;23.164;2023-02-28T14:35:09;27.27;;;11.37;;
10201;SDS011;5143;42.584;23.164;2023-02-28T14:37:47;22.00;;;10.73;;
10201;SDS011;5143;42.584;23.164;2023-02-28T14:40:15;18.13;;;10.37;;
10201;SDS011;5143;42.584;23.164;2023-02-28T14:42:47;32.20;;;11.17;;
10201;SDS011;5143;42.584;23.164;2023-02-28T14:45:20;23.33;;;10.60;;
10201;SDS011;5143;42.584;23.164;2023-02-28T14:47:48;17.27;;;9.20;;
10201;SDS011;5143;42.584;23.164;2023-02-28T14:50:20;23.57;;;9.87;;
10201;SDS011;5143;42.584;23.164;2023-02-28T14:52:50;19.03;;;10.80;;
10201;SDS011;5143;42.584;23.164;2023-02-28T14:55:18;20.07;;;10.43;;
10201;SDS011;5143;42.584;23.164;2023-02-28T14:57:52;18.50;;;10.63;;
10201;SDS011;5143;42.584;23.164;2023-02-28T15:00:21;27.57;;;10.00;;
10201;SDS011;5143;42.584;23.164;2023-02-28T15:02:50;22.07;;;10.63;;
10201;SDS011;5143;42.584;23.164;2023-02-28T15:05:27;19.70;;;10.40;;
10201;SDS011;5143;42.584;23.164;2023-02-28T15:08:05;21.53;;;10.43;;
10201;SDS011;5143;42.584;23.164;2023-02-28T15:10:38;19.90;;;11.57;;
10201;SDS011;5143;42.584;23.164;2023-02-28T15:13:07;19.13;;;10.73;;
10201;SDS011;5143;42.584;23.164;2023-02-28T15:15:40;23.50;;;11.80;;
10201;SDS011;5143;42.584;23.164;2023-02-28T15:18:14;23.93;;;10.40;;